sensor_id;sensor_type;location;lat;lon;timestamp;P1;durP1;ratioP1;P2;durP2;ratioP2
4486;SDS011;2256;48.740;9.106;2022-12-07T00:01:51;16.23;;;8.55;;
4486;SDS011;2256;48.740;9.106;2022-12-07T00:04:18;21.75;;;9.75;;
4486;SDS011;2256;48.740;9.106;2022-12-07T00:06:46;18.27;;;8.63;;
4486;SDS011;2256;48.740;9.106;2022-12-07T00:09:16;18.15;;;9.25;;
4486;SDS011;2256;48.740;9.106;2022-12-07T00:11:46;23.35;;;9.90;;
4486;SDS011;2256;48.740;9.106;2022-12-07T00:14:15;18.60;;;9.20;;
4486;SDS011;2256;48.740;9.106;2022-12-07T00:16:43;15.75;;;8.38;;
4486;SDS011;2256;48.740;9.106;2022-12-07T00:19:10;21.67;;;9.05;;
4486;SDS011;2256;48.740;9.106;2022-12-07T00:21:38;17.38;;;9.07;;
4486;SDS011;2256;48.740;9.106;2022-12-07T00:24:05;14.98;;;8.95;;
4486;SDS011;2256;48.740;9.106;2022-12-07T00:26:33;19.45;;;8.70;;
4486;SDS011;2256;48.740;9.106;2022-12-07T00:29:03;16.38;;;8.70;;
4486;SDS011;2256;48.740;9.106;2022-12-07T00:31:32;18.23;;;8.40;;
4486;SDS011;2256;48.740;9.106;2022-12-07T00:34:03;18.05;;;8.45;;
4486;SDS011;2256;48.740;9.106;2022-12-07T00:36:31;15.00;;;7.90;;
4486;SDS011;2256;48.740;9.106;2022-12-07T00:38:58;14.80;;;7.78;;
4486;SDS011;2256;48.740;9.106;2022-12-07T00:41:27;20.08;;;9.30;;
4486;SDS011;2256;48.740;9.106;2022-12-07T00:43:54;13.63;;;7.75;;
4486;SDS011;2256;48.740;9.106;2022-12-07T00:46:23;20.13;;;9.82;;
4486;SDS011;2256;48.740;9.106;2022-12-07T00:48:51;16.45;;;8.88;;
4486;SDS011;2256;48.740;9.106;2022-12-07T00:51:19;17.58;;;9.07;;
4486;SDS011;2256;48.740;9.106;2022-12-07T00:53:47;19.00;;;9.27;;
4486;SDS011;2256;48.740;9.106;2022-12-07T00:56:15;18.08;;;9.32;;
4486;SDS011;2256;48.740;9.106;2022-12-07T00:58:44;14.00;;;8.90;;
4486;SDS011;2256;48.740;9.106;2022-12-07T01:01:16;15.30;;;8.27;;
4486;SDS011;2256;48.740;9.106;2022-12-07T01:03:44;16.08;;;8.95;;
4486;SDS011;2256;48.740;9.106;2022-12-07T01:06:13;13.90;;;7.40;;
4486;SDS011;2256;48.740;9.106;2022-12-07T01:08:41;15.40;;;7.78;;
4486;SDS011;2256;48.740;9.106;2022-12-07T01:11:09;15.77;;;8.27;;
4486;SDS011;2256;48.740;9.106;2022-12-07T01:13:38;18.35;;;9.13;;
4486;SDS011;2256;48.740;9.106;2022-12-07T01:16:06;17.73;;;9.07;;
4486;SDS011;2256;48.740;9.106;2022-12-07T01:18:34;16.38;;;9.00;;
4486;SDS011;2256;48.740;9.106;2022-12-07T01:21:04;16.10;;;8.73;;
4486;SDS011;2256;48.740;9.106;2022-12-07T01:23:32;15.73;;;8.80;;
4486;SDS011;2256;48.740;9.106;2022-12-07T01:26:01;18.38;;;8.75;;
4486;SDS011;2256;48.740;9.106;2022-12-07T01:28:29;21.90;;;9.63;;
4486;SDS011;2256;48.740;9.106;2022-12-07T01:30:57;16.13;;;8.80;;
4486;SDS011;2256;48.740;9.106;2022-12-07T01:33:26;22.05;;;9.27;;
4486;SDS011;2256;48.740;9.106;2022-12-07T01:35:53;15.25;;;8.73;;
4486;SDS011;2256;48.740;9.106;2022-12-07T01:38:22;27.23;;;9.68;;
4486;SDS011;2256;48.740;9.106;2022-12-07T01:40:53;21.23;;;10.30;;
4486;SDS011;2256;48.740;9.106;2022-12-07T01:43:20;22.95;;;9.63;;
4486;SDS011;2256;48.740;9.106;2022-12-07T01:45:50;17.38;;;9.25;;
4486;SDS011;2256;48.740;9.106;2022-12-07T01:48:17;23.52;;;9.32;;
4486;SDS011;2256;48.740;9.106;2022-12-07T01:50:48;18.15;;;8.82;;
4486;SDS011;2256;48.740;9.106;2022-12-07T01:53:17;19.95;;;9.25;;
4486;SDS011;2256;48.740;9.106;2022-12-07T01:55:47;19.27;;;10.05;;
4486;SDS011;2256;48.740;9.106;2022-12-07T01:58:18;18.55;;;10.07;;
4486;SDS011;2256;48.740;9.106;2022-12-07T02:00:45;16.88;;;9.65;;
4486;SDS011;2256;48.740;9.106;2022-12-07T02:03:13;20.25;;;10.35;;
4486;SDS011;2256;48.740;9.106;2022-12-07T02:05:44;22.67;;;11.00;;
4486;SDS011;2256;48.740;9.106;2022-12-07T02:08:12;22.10;;;11.27;;
4486;SDS011;2256;48.740;9.106;2022-12-07T02:10:40;21.17;;;10.40;;
4486;SDS011;2256;48.740;9.106;2022-12-07T02:13:09;20.85;;;10.10;;
4486;SDS011;2256;48.740;9.106;2022-12-07T02:15:41;19.48;;;10.30;;
4486;SDS011;2256;48.740;9.106;2022-12-07T02:18:16;19.60;;;9.93;;
4486;SDS011;2256;48.740;9.106;2022-12-07T02:20:49;20.83;;;10.43;;
4486;SDS011;2256;48.740;9.106;2022-12-07T02:23:23;25.65;;;10.65;;
4486;SDS011;2256;48.740;9.106;2022-12-07T02:26:19;20.73;;;9.30;;
4486;SDS011;2256;48.740;9.106;2022-12-07T02:31:49;18.15;;;9.77;;
4486;SDS011;2256;48.740;9.106;2022-12-07T02:34:26;21.67;;;10.10;;
4486;SDS011;2256;48.740;9.106;2022-12-07T02:37:01;21.70;;;9.77;;
4486;SDS011;2256;48.740;9.106;2022-12-07T02:39:34;19.42;;;10.75;;
4486;SDS011;2256;48.740;9.106;2022-12-07T02:42:07;17.80;;;9.40;;
4486;SDS011;2256;48.740;9.106;2022-12-07T02:44:41;17.55;;;8.93;;
4486;SDS011;2256;48.740;9.106;2022-12-07T02:47:10;20.58;;;10.25;;
4486;SDS011;2256;48.740;9.106;2022-12-07T02:49:40;20.65;;;9.88;;
4486;SDS011;2256;48.740;9.106;2022-12-07T02:52:07;23.55;;;10.50;;
4486;SDS011;2256;48.740;9.106;2022-12-07T02:54:34;19.70;;;10.38;;
4486;SDS011;2256;48.740;9.106;2022-12-07T02:57:04;17.98;;;9.40;;
4486;SDS011;2256;48.740;9.106;2022-12-07T02:59:45;21.65;;;10.13;;
4486;SDS011;2256;48.740;9.106;2022-12-07T03:02:25;17.50;;;8.70;;
4486;SDS011;2256;48.740;9.106;2022-12-07T03:05:00;17.55;;;9.50;;
4486;SDS011;2256;48.740;9.106;2022-12-07T03:07:39;20.48;;;10.30;;
4486;SDS011;2256;48.740;9.106;2022-12-07T03:10:17;22.90;;;10.32;;
4486;SDS011;2256;48.740;9.106;2022-12-07T03:12:54;21.17;;;9.90;;
4486;SDS011;2256;48.740;9.106;2022-12-07T03:15:33;19.50;;;9.00;;
4486;SDS011;2256;48.740;9.106;2022-12-07T03:18:06;18.42;;;9.48;;
4486;SDS011;2256;48.740;9.106;2022-12-07T03:20:35;19.98;;;9.95;;
4486;SDS011;2256;48.740;9.106;2022-12-07T03:23:05;20.95;;;9.35;;
4486;SDS011;2256;48.740;9.106;2022-12-07T03:25:35;18.75;;;10.10;;
4486;SDS011;2256;48.740;9.106;2022-12-07T03:28:05;20.98;;;10.15;;
4486;SDS011;2256;48.740;9.106;2022-12-07T03:30:35;15.65;;;9.02;;
4486;SDS011;2256;48.740;9.106;2022-12-07T03:33:08;18.85;;;10.20;;
4486;SDS011;2256;48.740;9.106;2022-12-07T03:35:39;17.95;;;9.40;;
4486;SDS011;2256;48.740;9.106;2022-12-07T03:38:12;17.75;;;10.30;;
4486;SDS011;2256;48.740;9.106;2022-12-07T03:40:46;19.65;;;8.95;;
4486;SDS011;2256;48.740;9.106;2022-12-07T03:43:17;19.92;;;10.25;;
4486;SDS011;2256;48.740;9.106;2022-12-07T03:45:48;23.10;;;10.13;;
4486;SDS011;2256;48.740;9.106;2022-12-07T03:48:24;23.05;;;9.73;;
4486;SDS011;2256;48.740;9.106;2022-12-07T03:50:59;22.27;;;10.10;;
4486;SDS011;2256;48.740;9.106;2022-12-07T03:53:33;18.15;;;9.23;;
4486;SDS011;2256;48.740;9.106;2022-12-07T03:56:03;17.45;;;9.52;;
4486;SDS011;2256;48.740;9.106;2022-12-07T03:58:31;20.02;;;10.50;;
4486;SDS011;2256;48.740;9.106;2022-12-07T04:01:01;20.83;;;9.57;;
4486;SDS011;2256;48.740;9.106;2022-12-07T04:03:28;21.27;;;9.70;;
4486;SDS011;2256;48.740;9.106;2022-12-07T04:05:55;19.67;;;10.13;;
4486;SDS011;2256;48.740;9.106;2022-12-07T04:08:23;17.27;;;8.73;;
4486;SDS011;2256;48.740;9.106;2022-12-07T04:10:50;17.60;;;9.50;;
4486;SDS011;2256;48.740;9.106;2022-12-07T04:13:16;20.25;;;10.07;;
4486;SDS011;2256;48.740;9.106;2022-12-07T04:15:43;18.65;;;9.90;;
4486;SDS011;2256;48.740;9.106;2022-12-07T04:18:11;19.40;;;9.80;;
4486;SDS011;2256;48.740;9.106;2022-12-07T04:20:38;16.83;;;8.77;;
4486;SDS011;2256;48.740;9.106;2022-12-07T04:23:05;21.73;;;9.95;;
4486;SDS011;2256;48.740;9.106;2022-12-07T04:25:31;17.90;;;8.90;;
4486;SDS011;2256;48.740;9.106;2022-12-07T04:27:58;26.38;;;11.10;;
4486;SDS011;2256;48.740;9.106;2022-12-07T04:30:25;24.58;;;10.98;;
4486;SDS011;2256;48.740;9.106;2022-12-07T04:32:53;18.85;;;8.93;;
4486;SDS011;2256;48.740;9.106;2022-12-07T04:35:21;18.02;;;8.82;;
4486;SDS011;2256;48.740;9.106;2022-12-07T04:37:47;17.10;;;9.65;;
4486;SDS011;2256;48.740;9.106;2022-12-07T04:40:14;15.95;;;8.50;;
4486;SDS011;2256;48.740;9.106;2022-12-07T04:42:41;15.75;;;8.30;;
4486;SDS011;2256;48.740;9.106;2022-12-07T04:45:08;14.23;;;8.30;;
4486;SDS011;2256;48.740;9.106;2022-12-07T04:47:35;18.83;;;8.57;;
4486;SDS011;2256;48.740;9.106;2022-12-07T04:50:02;20.05;;;8.90;;
4486;SDS011;2256;48.740;9.106;2022-12-07T04:52:31;16.80;;;8.20;;
4486;SDS011;2256;48.740;9.106;2022-12-07T04:54:57;15.85;;;7.32;;
4486;SDS011;2256;48.740;9.106;2022-12-07T04:57:24;12.32;;;6.47;;
4486;SDS011;2256;48.740;9.106;2022-12-07T04:59:51;12.77;;;6.78;;
4486;SDS011;2256;48.740;9.106;2022-12-07T05:02:18;13.30;;;6.63;;
4486;SDS011;2256;48.740;9.106;2022-12-07T05:04:45;23.05;;;6.90;;
4486;SDS011;2256;48.740;9.106;2022-12-07T05:07:11;10.82;;;6.55;;
4486;SDS011;2256;48.740;9.106;2022-12-07T05:09:39;11.20;;;6.03;;
4486;SDS011;2256;48.740;9.106;2022-12-07T05:12:06;7.45;;;4.85;;
4486;SDS011;2256;48.740;9.106;2022-12-07T05:14:33;8.50;;;5.57;;
4486;SDS011;2256;48.740;9.106;2022-12-07T05:17:00;8.98;;;5.35;;
4486;SDS011;2256;48.740;9.106;2022-12-07T05:19:27;9.68;;;6.55;;
4486;SDS011;2256;48.740;9.106;2022-12-07T05:21:53;12.75;;;6.35;;
4486;SDS011;2256;48.740;9.106;2022-12-07T05:24:20;10.50;;;6.25;;
4486;SDS011;2256;48.740;9.106;2022-12-07T05:26:48;9.35;;;5.60;;
4486;SDS011;2256;48.740;9.106;2022-12-07T05:29:16;13.13;;;6.85;;
4486;SDS011;2256;48.740;9.106;2022-12-07T05:31:43;10.50;;;6.25;;
4486;SDS011;2256;48.740;9.106;2022-12-07T05:34:12;12.25;;;6.60;;
4486;SDS011;2256;48.740;9.106;2022-12-07T05:36:39;10.00;;;6.30;;
4486;SDS011;2256;48.740;9.106;2022-12-07T05:39:06;14.43;;;5.97;;
4486;SDS011;2256;48.740;9.106;2022-12-07T05:41:33;9.55;;;5.95;;
4486;SDS011;2256;48.740;9.106;2022-12-07T05:44:19;10.75;;;5.97;;
4486;SDS011;2256;48.740;9.106;2022-12-07T05:46:46;9.50;;;5.40;;
4486;SDS011;2256;48.740;9.106;2022-12-07T05:49:13;9.45;;;5.28;;
4486;SDS011;2256;48.740;9.106;2022-12-07T05:51:39;11.35;;;6.07;;
4486;SDS011;2256;48.740;9.106;2022-12-07T05:54:06;8.93;;;5.45;;
4486;SDS011;2256;48.740;9.106;2022-12-07T05:56:33;10.57;;;6.15;;
4486;SDS011;2256;48.740;9.106;2022-12-07T05:59:00;14.73;;;6.57;;
4486;SDS011;2256;48.740;9.106;2022-12-07T06:01:45;9.90;;;6.15;;
4486;SDS011;2256;48.740;9.106;2022-12-07T06:04:12;10.90;;;5.47;;
4486;SDS011;2256;48.740;9.106;2022-12-07T06:06:39;11.65;;;5.90;;
4486;SDS011;2256;48.740;9.106;2022-12-07T06:09:05;10.15;;;5.78;;
4486;SDS011;2256;48.740;9.106;2022-12-07T06:11:32;14.73;;;6.35;;
4486;SDS011;2256;48.740;9.106;2022-12-07T06:14:16;16.23;;;6.97;;
4486;SDS011;2256;48.740;9.106;2022-12-07T06:16:47;12.32;;;6.80;;
4486;SDS011;2256;48.740;9.106;2022-12-07T06:19:14;13.35;;;6.90;;
4486;SDS011;2256;48.740;9.106;2022-12-07T06:21:41;31.88;;;8.73;;
4486;SDS011;2256;48.740;9.106;2022-12-07T06:24:08;18.92;;;8.57;;
4486;SDS011;2256;48.740;9.106;2022-12-07T06:26:36;16.33;;;7.70;;
4486;SDS011;2256;48.740;9.106;2022-12-07T06:29:03;16.08;;;8.60;;
4486;SDS011;2256;48.740;9.106;2022-12-07T06:31:30;14.75;;;6.68;;
4486;SDS011;2256;48.740;9.106;2022-12-07T06:33:59;14.00;;;7.20;;
4486;SDS011;2256;48.740;9.106;2022-12-07T06:36:27;18.08;;;7.35;;
4486;SDS011;2256;48.740;9.106;2022-12-07T06:38:54;13.32;;;7.10;;
4486;SDS011;2256;48.740;9.106;2022-12-07T06:41:21;10.65;;;6.60;;
4486;SDS011;2256;48.740;9.106;2022-12-07T06:43:50;15.10;;;6.40;;
4486;SDS011;2256;48.740;9.106;2022-12-07T06:46:17;14.55;;;6.95;;
4486;SDS011;2256;48.740;9.106;2022-12-07T06:48:44;14.10;;;6.82;;
4486;SDS011;2256;48.740;9.106;2022-12-07T06:51:12;15.70;;;7.50;;
4486;SDS011;2256;48.740;9.106;2022-12-07T06:53:39;14.70;;;7.00;;
4486;SDS011;2256;48.740;9.106;2022-12-07T06:56:06;10.70;;;6.45;;
4486;SDS011;2256;48.740;9.106;2022-12-07T06:58:33;12.80;;;6.85;;
4486;SDS011;2256;48.740;9.106;2022-12-07T07:00:59;10.57;;;6.85;;
4486;SDS011;2256;48.740;9.106;2022-12-07T07:03:26;11.68;;;5.97;;
4486;SDS011;2256;48.740;9.106;2022-12-07T07:05:53;10.35;;;5.95;;
4486;SDS011;2256;48.740;9.106;2022-12-07T07:08:21;18.42;;;7.57;;
4486;SDS011;2256;48.740;9.106;2022-12-07T07:10:48;12.65;;;6.22;;
4486;SDS011;2256;48.740;9.106;2022-12-07T07:13:15;10.85;;;5.82;;
4486;SDS011;2256;48.740;9.106;2022-12-07T07:15:42;11.40;;;5.90;;
4486;SDS011;2256;48.740;9.106;2022-12-07T07:18:09;10.40;;;5.93;;
4486;SDS011;2256;48.740;9.106;2022-12-07T07:20:36;12.80;;;6.00;;
4486;SDS011;2256;48.740;9.106;2022-12-07T07:23:03;9.40;;;4.95;;
4486;SDS011;2256;48.740;9.106;2022-12-07T07:25:31;12.18;;;6.50;;
4486;SDS011;2256;48.740;9.106;2022-12-07T07:27:58;13.07;;;5.75;;
4486;SDS011;2256;48.740;9.106;2022-12-07T07:30:26;11.40;;;5.25;;
4486;SDS011;2256;48.740;9.106;2022-12-07T07:32:55;11.88;;;5.82;;
4486;SDS011;2256;48.740;9.106;2022-12-07T07:35:22;9.40;;;5.60;;
4486;SDS011;2256;48.740;9.106;2022-12-07T07:37:49;9.95;;;5.45;;
4486;SDS011;2256;48.740;9.106;2022-12-07T07:40:16;13.23;;;5.43;;
4486;SDS011;2256;48.740;9.106;2022-12-07T07:42:46;15.23;;;5.75;;
4486;SDS011;2256;48.740;9.106;2022-12-07T07:45:13;8.82;;;5.60;;
4486;SDS011;2256;48.740;9.106;2022-12-07T07:47:40;10.27;;;5.90;;
4486;SDS011;2256;48.740;9.106;2022-12-07T07:50:07;14.05;;;5.70;;
4486;SDS011;2256;48.740;9.106;2022-12-07T07:52:34;10.23;;;6.03;;
4486;SDS011;2256;48.740;9.106;2022-12-07T07:55:01;15.63;;;6.32;;
4486;SDS011;2256;48.740;9.106;2022-12-07T07:57:27;12.82;;;5.43;;
4486;SDS011;2256;48.740;9.106;2022-12-07T07:59:56;14.50;;;7.15;;
4486;SDS011;2256;48.740;9.106;2022-12-07T08:02:22;14.85;;;6.45;;
4486;SDS011;2256;48.740;9.106;2022-12-07T08:04:49;10.20;;;6.03;;
4486;SDS011;2256;48.740;9.106;2022-12-07T08:07:16;12.85;;;7.00;;
4486;SDS011;2256;48.740;9.106;2022-12-07T08:09:43;12.00;;;5.75;;
4486;SDS011;2256;48.740;9.106;2022-12-07T08:12:09;10.07;;;6.05;;
4486;SDS011;2256;48.740;9.106;2022-12-07T08:14:36;10.43;;;6.03;;
4486;SDS011;2256;48.740;9.106;2022-12-07T08:17:04;15.30;;;6.25;;
4486;SDS011;2256;48.740;9.106;2022-12-07T08:19:31;15.07;;;6.40;;
4486;SDS011;2256;48.740;9.106;2022-12-07T08:21:59;12.40;;;6.25;;
4486;SDS011;2256;48.740;9.106;2022-12-07T08:24:26;8.45;;;5.20;;
4486;SDS011;2256;48.740;9.106;2022-12-07T08:26:53;13.00;;;6.00;;
4486;SDS011;2256;48.740;9.106;2022-12-07T08:29:19;10.88;;;5.93;;
4486;SDS011;2256;48.740;9.106;2022-12-07T08:31:46;12.75;;;6.60;;
4486;SDS011;2256;48.740;9.106;2022-12-07T08:34:14;12.05;;;6.18;;
4486;SDS011;2256;48.740;9.106;2022-12-07T08:36:41;13.65;;;5.55;;
4486;SDS011;2256;48.740;9.106;2022-12-07T08:39:08;11.82;;;5.90;;
4486;SDS011;2256;48.740;9.106;2022-12-07T08:41:35;22.25;;;6.07;;
4486;SDS011;2256;48.740;9.106;2022-12-07T08:44:02;24.70;;;6.10;;
4486;SDS011;2256;48.740;9.106;2022-12-07T08:46:30;13.98;;;5.15;;
4486;SDS011;2256;48.740;9.106;2022-12-07T08:49:03;11.32;;;5.63;;
4486;SDS011;2256;48.740;9.106;2022-12-07T08:51:35;10.70;;;6.35;;
4486;SDS011;2256;48.740;9.106;2022-12-07T08:54:03;21.67;;;5.78;;
4486;SDS011;2256;48.740;9.106;2022-12-07T08:56:32;9.70;;;5.45;;
4486;SDS011;2256;48.740;9.106;2022-12-07T08:59:00;10.70;;;5.00;;
4486;SDS011;2256;48.740;9.106;2022-12-07T09:01:27;17.42;;;5.78;;
4486;SDS011;2256;48.740;9.106;2022-12-07T09:03:54;15.20;;;5.63;;
4486;SDS011;2256;48.740;9.106;2022-12-07T09:06:21;13.25;;;5.22;;
4486;SDS011;2256;48.740;9.106;2022-12-07T09:08:49;12.02;;;5.20;;
4486;SDS011;2256;48.740;9.106;2022-12-07T09:11:20;14.30;;;5.50;;
4486;SDS011;2256;48.740;9.106;2022-12-07T09:13:46;15.88;;;5.40;;
4486;SDS011;2256;48.740;9.106;2022-12-07T09:16:13;21.50;;;4.97;;
4486;SDS011;2256;48.740;9.106;2022-12-07T09:18:40;13.45;;;5.60;;
4486;SDS011;2256;48.740;9.106;2022-12-07T09:21:07;20.52;;;5.78;;
4486;SDS011;2256;48.740;9.106;2022-12-07T09:23:34;12.23;;;5.50;;
4486;SDS011;2256;48.740;9.106;2022-12-07T09:26:03;8.85;;;5.40;;
4486;SDS011;2256;48.740;9.106;2022-12-07T09:28:30;8.80;;;4.65;;
4486;SDS011;2256;48.740;9.106;2022-12-07T09:30:57;11.00;;;5.20;;
4486;SDS011;2256;48.740;9.106;2022-12-07T09:33:24;23.83;;;5.63;;
4486;SDS011;2256;48.740;9.106;2022-12-07T09:35:51;13.30;;;5.22;;
4486;SDS011;2256;48.740;9.106;2022-12-07T09:38:18;11.63;;;5.50;;
4486;SDS011;2256;48.740;9.106;2022-12-07T09:40:46;13.48;;;4.70;;
4486;SDS011;2256;48.740;9.106;2022-12-07T09:43:15;16.08;;;4.70;;
4486;SDS011;2256;48.740;9.106;2022-12-07T09:45:45;12.80;;;5.25;;
4486;SDS011;2256;48.740;9.106;2022-12-07T09:48:14;14.57;;;5.03;;
4486;SDS011;2256;48.740;9.106;2022-12-07T09:50:45;8.18;;;4.57;;
4486;SDS011;2256;48.740;9.106;2022-12-07T09:53:13;10.25;;;4.47;;
4486;SDS011;2256;48.740;9.106;2022-12-07T09:55:43;5.78;;;3.78;;
4486;SDS011;2256;48.740;9.106;2022-12-07T09:58:11;9.30;;;4.28;;
4486;SDS011;2256;48.740;9.106;2022-12-07T10:00:46;7.63;;;4.15;;
4486;SDS011;2256;48.740;9.106;2022-12-07T10:03:13;14.15;;;4.32;;
4486;SDS011;2256;48.740;9.106;2022-12-07T10:05:41;14.40;;;4.43;;
4486;SDS011;2256;48.740;9.106;2022-12-07T10:08:11;17.67;;;4.43;;
4486;SDS011;2256;48.740;9.106;2022-12-07T10:10:40;11.95;;;4.38;;
4486;SDS011;2256;48.740;9.106;2022-12-07T10:13:07;9.50;;;4.53;;
4486;SDS011;2256;48.740;9.106;2022-12-07T10:15:45;7.15;;;4.30;;
4486;SDS011;2256;48.740;9.106;2022-12-07T10:21:10;8.07;;;4.75;;
4486;SDS011;2256;48.740;9.106;2022-12-07T10:23:39;9.18;;;4.32;;
4486;SDS011;2256;48.740;9.106;2022-12-07T10:26:19;9.02;;;4.85;;
4486;SDS011;2256;48.740;9.106;2022-12-07T10:28:52;9.43;;;4.85;;
4486;SDS011;2256;48.740;9.106;2022-12-07T10:31:21;14.05;;;4.00;;
4486;SDS011;2256;48.740;9.106;2022-12-07T10:33:50;9.90;;;3.95;;
4486;SDS011;2256;48.740;9.106;2022-12-07T10:36:19;12.82;;;4.35;;
4486;SDS011;2256;48.740;9.106;2022-12-07T10:38:48;13.70;;;3.78;;
4486;SDS011;2256;48.740;9.106;2022-12-07T10:41:16;11.57;;;4.22;;
4486;SDS011;2256;48.740;9.106;2022-12-07T10:43:47;12.90;;;3.90;;
4486;SDS011;2256;48.740;9.106;2022-12-07T10:46:27;5.47;;;3.80;;
4486;SDS011;2256;48.740;9.106;2022-12-07T10:49:09;20.98;;;4.68;;
4486;SDS011;2256;48.740;9.106;2022-12-07T10:51:50;7.88;;;4.10;;
4486;SDS011;2256;48.740;9.106;2022-12-07T10:54:26;9.82;;;4.18;;
4486;SDS011;2256;48.740;9.106;2022-12-07T10:57:05;13.75;;;4.32;;
4486;SDS011;2256;48.740;9.106;2022-12-07T10:59:52;19.13;;;4.45;;
4486;SDS011;2256;48.740;9.106;2022-12-07T11:02:35;11.85;;;4.15;;
4486;SDS011;2256;48.740;9.106;2022-12-07T11:05:16;6.97;;;3.90;;
4486;SDS011;2256;48.740;9.106;2022-12-07T11:07:50;9.43;;;3.95;;
4486;SDS011;2256;48.740;9.106;2022-12-07T11:10:29;9.70;;;5.03;;
4486;SDS011;2256;48.740;9.106;2022-12-07T11:13:10;12.93;;;4.50;;
4486;SDS011;2256;48.740;9.106;2022-12-07T11:15:53;7.20;;;3.85;;
4486;SDS011;2256;48.740;9.106;2022-12-07T11:18:31;10.63;;;4.22;;
4486;SDS011;2256;48.740;9.106;2022-12-07T11:21:09;9.82;;;4.15;;
4486;SDS011;2256;48.740;9.106;2022-12-07T11:23:46;7.35;;;4.75;;
4486;SDS011;2256;48.740;9.106;2022-12-07T11:26:21;11.65;;;3.58;;
4486;SDS011;2256;48.740;9.106;2022-12-07T11:29:13;8.73;;;4.15;;
4486;SDS011;2256;48.740;9.106;2022-12-07T11:31:55;7.18;;;4.15;;
4486;SDS011;2256;48.740;9.106;2022-12-07T11:34:32;11.93;;;4.00;;
4486;SDS011;2256;48.740;9.106;2022-12-07T11:37:06;6.50;;;4.45;;
4486;SDS011;2256;48.740;9.106;2022-12-07T11:39:39;8.40;;;4.10;;
4486;SDS011;2256;48.740;9.106;2022-12-07T11:42:12;10.30;;;4.15;;
4486;SDS011;2256;48.740;9.106;2022-12-07T11:44:45;4.88;;;3.17;;
4486;SDS011;2256;48.740;9.106;2022-12-07T11:47:17;13.27;;;3.17;;
4486;SDS011;2256;48.740;9.106;2022-12-07T11:49:53;6.88;;;3.60;;
4486;SDS011;2256;48.740;9.106;2022-12-07T11:52:24;6.75;;;3.38;;
4486;SDS011;2256;48.740;9.106;2022-12-07T11:55:13;6.57;;;3.20;;
4486;SDS011;2256;48.740;9.106;2022-12-07T11:57:45;16.35;;;3.50;;
4486;SDS011;2256;48.740;9.106;2022-12-07T12:00:18;8.60;;;3.45;;
4486;SDS011;2256;48.740;9.106;2022-12-07T12:02:46;7.13;;;3.30;;
4486;SDS011;2256;48.740;9.106;2022-12-07T12:05:20;7.53;;;3.00;;
4486;SDS011;2256;48.740;9.106;2022-12-07T12:07:49;5.78;;;3.53;;
4486;SDS011;2256;48.740;9.106;2022-12-07T12:10:24;11.00;;;2.97;;
4486;SDS011;2256;48.740;9.106;2022-12-07T12:16:03;4.55;;;3.45;;
4486;SDS011;2256;48.740;9.106;2022-12-07T12:18:44;4.43;;;3.10;;
4486;SDS011;2256;48.740;9.106;2022-12-07T12:21:25;7.20;;;2.95;;
4486;SDS011;2256;48.740;9.106;2022-12-07T12:23:55;4.22;;;2.88;;
4486;SDS011;2256;48.740;9.106;2022-12-07T12:26:25;9.98;;;3.40;;
4486;SDS011;2256;48.740;9.106;2022-12-07T12:28:54;4.88;;;3.10;;
4486;SDS011;2256;48.740;9.106;2022-12-07T12:31:33;4.07;;;2.88;;
4486;SDS011;2256;48.740;9.106;2022-12-07T12:34:03;7.75;;;3.72;;
4486;SDS011;2256;48.740;9.106;2022-12-07T12:36:52;8.05;;;4.35;;
4486;SDS011;2256;48.740;9.106;2022-12-07T12:39:19;6.90;;;4.22;;
4486;SDS011;2256;48.740;9.106;2022-12-07T12:41:54;18.02;;;5.15;;
4486;SDS011;2256;48.740;9.106;2022-12-07T12:44:40;7.97;;;4.30;;
4486;SDS011;2256;48.740;9.106;2022-12-07T12:47:52;10.60;;;4.97;;
4486;SDS011;2256;48.740;9.106;2022-12-07T12:50:24;12.77;;;5.50;;
4486;SDS011;2256;48.740;9.106;2022-12-07T12:52:58;8.43;;;4.38;;
4486;SDS011;2256;48.740;9.106;2022-12-07T13:01:51;9.52;;;3.75;;
4486;SDS011;2256;48.740;9.106;2022-12-07T13:10:25;6.38;;;4.22;;
4486;SDS011;2256;48.740;9.106;2022-12-07T13:13:00;7.75;;;3.95;;
4486;SDS011;2256;48.740;9.106;2022-12-07T13:15:32;6.30;;;3.40;;
4486;SDS011;2256;48.740;9.106;2022-12-07T13:18:02;3.78;;;3.13;;
4486;SDS011;2256;48.740;9.106;2022-12-07T13:20:49;14.52;;;3.42;;
4486;SDS011;2256;48.740;9.106;2022-12-07T13:23:18;4.72;;;3.50;;
4486;SDS011;2256;48.740;9.106;2022-12-07T13:25:51;6.78;;;3.67;;
4486;SDS011;2256;48.740;9.106;2022-12-07T13:28:21;7.70;;;3.83;;
4486;SDS011;2256;48.740;9.106;2022-12-07T13:31:00;16.48;;;3.95;;
4486;SDS011;2256;48.740;9.106;2022-12-07T13:33:42;4.60;;;3.80;;
4486;SDS011;2256;48.740;9.106;2022-12-07T13:36:12;6.47;;;3.25;;
4486;SDS011;2256;48.740;9.106;2022-12-07T13:38:48;7.78;;;3.17;;
4486;SDS011;2256;48.740;9.106;2022-12-07T13:41:18;4.85;;;2.97;;
4486;SDS011;2256;48.740;9.106;2022-12-07T13:43:48;11.82;;;3.42;;
4486;SDS011;2256;48.740;9.106;2022-12-07T13:46:21;14.85;;;3.55;;
4486;SDS011;2256;48.740;9.106;2022-12-07T13:48:52;4.07;;;2.40;;
4486;SDS011;2256;48.740;9.106;2022-12-07T13:51:22;4.55;;;2.80;;
4486;SDS011;2256;48.740;9.106;2022-12-07T13:53:50;5.15;;;3.60;;
4486;SDS011;2256;48.740;9.106;2022-12-07T13:56:22;5.20;;;3.38;;
4486;SDS011;2256;48.740;9.106;2022-12-07T13:58:52;4.05;;;3.08;;
4486;SDS011;2256;48.740;9.106;2022-12-07T14:01:19;8.02;;;3.17;;
4486;SDS011;2256;48.740;9.106;2022-12-07T14:03:46;12.25;;;3.30;;
4486;SDS011;2256;48.740;9.106;2022-12-07T14:06:14;17.27;;;3.13;;
4486;SDS011;2256;48.740;9.106;2022-12-07T14:08:44;7.45;;;3.63;;
4486;SDS011;2256;48.740;9.106;2022-12-07T14:11:13;6.45;;;3.75;;
4486;SDS011;2256;48.740;9.106;2022-12-07T14:13:54;9.77;;;3.83;;
4486;SDS011;2256;48.740;9.106;2022-12-07T14:16:25;11.13;;;3.67;;
4486;SDS011;2256;48.740;9.106;2022-12-07T14:18:54;9.88;;;3.80;;
4486;SDS011;2256;48.740;9.106;2022-12-07T14:21:23;9.48;;;3.63;;
4486;SDS011;2256;48.740;9.106;2022-12-07T14:24:11;6.10;;;3.92;;
4486;SDS011;2256;48.740;9.106;2022-12-07T14:26:41;9.15;;;3.42;;
4486;SDS011;2256;48.740;9.106;2022-12-07T14:29:20;9.23;;;3.92;;
4486;SDS011;2256;48.740;9.106;2022-12-07T14:31:48;6.60;;;4.03;;
4486;SDS011;2256;48.740;9.106;2022-12-07T14:34:15;7.22;;;4.00;;
4486;SDS011;2256;48.740;9.106;2022-12-07T14:36:42;13.40;;;4.22;;
4486;SDS011;2256;48.740;9.106;2022-12-07T14:39:08;6.38;;;3.85;;
4486;SDS011;2256;48.740;9.106;2022-12-07T14:41:35;6.70;;;3.92;;
4486;SDS011;2256;48.740;9.106;2022-12-07T14:44:18;22.40;;;4.93;;
4486;SDS011;2256;48.740;9.106;2022-12-07T14:46:48;8.82;;;4.40;;
4486;SDS011;2256;48.740;9.106;2022-12-07T14:49:15;10.23;;;4.43;;
4486;SDS011;2256;48.740;9.106;2022-12-07T14:51:43;6.55;;;4.05;;
4486;SDS011;2256;48.740;9.106;2022-12-07T14:54:14;6.45;;;4.15;;
4486;SDS011;2256;48.740;9.106;2022-12-07T14:56:43;8.32;;;4.30;;
4486;SDS011;2256;48.740;9.106;2022-12-07T14:59:11;15.70;;;5.03;;
4486;SDS011;2256;48.740;9.106;2022-12-07T15:01:39;17.13;;;5.10;;
4486;SDS011;2256;48.740;9.106;2022-12-07T15:04:06;8.75;;;4.70;;
4486;SDS011;2256;48.740;9.106;2022-12-07T15:06:33;10.63;;;5.25;;
4486;SDS011;2256;48.740;9.106;2022-12-07T15:08:59;16.48;;;5.57;;
4486;SDS011;2256;48.740;9.106;2022-12-07T15:11:27;9.95;;;4.93;;
4486;SDS011;2256;48.740;9.106;2022-12-07T15:13:54;9.10;;;5.13;;
4486;SDS011;2256;48.740;9.106;2022-12-07T15:16:38;15.25;;;6.30;;
4486;SDS011;2256;48.740;9.106;2022-12-07T15:19:10;8.05;;;4.97;;
4486;SDS011;2256;48.740;9.106;2022-12-07T15:21:40;9.25;;;5.00;;
4486;SDS011;2256;48.740;9.106;2022-12-07T15:24:07;11.07;;;5.35;;
4486;SDS011;2256;48.740;9.106;2022-12-07T15:26:35;8.57;;;4.78;;
4486;SDS011;2256;48.740;9.106;2022-12-07T15:29:02;8.27;;;5.07;;
4486;SDS011;2256;48.740;9.106;2022-12-07T15:31:29;10.40;;;5.18;;
4486;SDS011;2256;48.740;9.106;2022-12-07T15:33:58;8.43;;;4.65;;
4486;SDS011;2256;48.740;9.106;2022-12-07T15:36:26;8.35;;;5.43;;
4486;SDS011;2256;48.740;9.106;2022-12-07T15:38:54;8.43;;;4.40;;
4486;SDS011;2256;48.740;9.106;2022-12-07T15:41:21;9.48;;;5.03;;
4486;SDS011;2256;48.740;9.106;2022-12-07T15:43:49;8.23;;;4.75;;
4486;SDS011;2256;48.740;9.106;2022-12-07T15:46:34;9.88;;;5.28;;